Terminal Aerodrome Forecast
Issued by NWS

Home | Current Version | Previous Version | Graphics & Text | Print | Product List | Glossary On
Versions: 1 2 3 4 5 6 7 8 9 10 11 12 13 14 15 16 17 18 19 20
000
FTUS43 KIWX 270025 AAA
TAFSBN
TAF AMD
KSBN 270025Z 2700/2724 08006KT 6SM SHRA VCTS BKN050CB
      TEMPO 2700/2702 2SM -TSRA BR BKN030CB
     FM270200 06006KT 4SM -SHRA BR OVC030
     FM270500 06004KT 6SM BR BKN020
     FM271000 04004KT P6SM BKN015
     FM271500 05006KT P6SM BKN035
     FM272100 11004KT P6SM SCT080=

USA.gov is the U.S. government's official web portal to all federal, state and local government web resources and services.